createdAt,value
2024-03-27T00:01:39.917Z,8.71
2024-03-27T00:04:10.567Z,8.72
2024-03-27T00:06:41.177Z,8.74
2024-03-27T00:09:11.264Z,8.77
2024-03-27T00:11:41.518Z,8.79
2024-03-27T00:14:12.174Z,8.81
2024-03-27T00:16:42.880Z,8.85
2024-03-27T00:19:13.662Z,8.85
2024-03-27T00:21:43.994Z,8.91
2024-03-27T00:24:14.622Z,8.91
2024-03-27T00:26:45.208Z,8.86
2024-03-27T00:29:15.629Z,8.83
2024-03-27T00:31:45.881Z,8.78
2024-03-27T00:34:16.568Z,8.76
2024-03-27T00:36:47.117Z,8.70
2024-03-27T00:39:17.768Z,8.70
2024-03-27T00:41:48.016Z,8.71
2024-03-27T00:44:18.656Z,8.68
2024-03-27T00:46:49.246Z,8.68
2024-03-27T00:49:19.900Z,8.67
2024-03-27T00:51:50.215Z,8.65
2024-03-27T00:54:20.595Z,8.64
2024-03-27T00:56:51.397Z,8.62
2024-03-27T00:59:22.041Z,8.62
2024-03-27T01:01:52.361Z,8.61
2024-03-27T01:04:23.020Z,8.60
2024-03-27T01:06:53.616Z,8.62
2024-03-27T01:09:24.302Z,8.66
2024-03-27T01:11:54.866Z,8.69
2024-03-27T01:14:25.498Z,8.72
2024-03-27T01:16:56.047Z,8.73
2024-03-27T01:19:26.702Z,8.74
2024-03-27T01:21:57.002Z,8.74
2024-03-27T01:24:27.667Z,8.71
2024-03-27T01:26:57.971Z,8.64
2024-03-27T01:29:28.282Z,8.58
2024-03-27T01:31:58.593Z,8.56
2024-03-27T01:34:29.239Z,8.55
2024-03-27T01:36:59.316Z,8.54
2024-03-27T01:39:30.219Z,8.52
2024-03-27T01:42:00.814Z,8.49
2024-03-27T01:44:31.439Z,8.48
2024-03-27T01:47:02.064Z,8.47
2024-03-27T01:49:32.373Z,8.45
2024-03-27T01:52:02.975Z,8.46
2024-03-27T01:54:33.658Z,8.49
2024-03-27T01:57:04.239Z,8.51
2024-03-27T01:59:34.592Z,8.54
2024-03-27T02:02:04.971Z,8.56
2024-03-27T02:04:35.579Z,8.59
2024-03-27T02:07:06.206Z,8.59
2024-03-27T02:09:37.112Z,8.59
2024-03-27T02:12:07.668Z,8.62
2024-03-27T02:14:38.306Z,8.63
2024-03-27T02:17:16.421Z,8.66
2024-03-27T02:19:39.643Z,8.67
2024-03-27T02:22:10.152Z,8.68
2024-03-27T02:24:40.807Z,8.65
2024-03-27T02:27:11.425Z,8.64
2024-03-27T02:29:42.030Z,8.63
2024-03-27T02:32:12.860Z,8.61
2024-03-27T02:34:43.525Z,8.60
2024-03-27T02:37:14.130Z,8.57
2024-03-27T02:39:44.297Z,8.56
2024-03-27T02:42:14.844Z,8.52
2024-03-27T02:44:45.143Z,8.49
2024-03-27T02:47:15.269Z,8.47
2024-03-27T02:49:45.870Z,8.45
2024-03-27T02:52:15.853Z,8.45
2024-03-27T02:54:46.557Z,8.43
2024-03-27T02:57:16.840Z,8.46
2024-03-27T02:59:47.490Z,8.49
2024-03-27T03:02:18.085Z,8.52
2024-03-27T03:04:48.742Z,8.55
2024-03-27T03:07:19.651Z,8.60
2024-03-27T03:09:50.194Z,8.64
2024-03-27T03:12:20.781Z,8.66
2024-03-27T03:14:51.489Z,8.69
2024-03-27T03:17:22.027Z,8.68
2024-03-27T03:19:52.652Z,8.69
2024-03-27T03:22:23.261Z,8.68
2024-03-27T03:24:53.894Z,8.65
2024-03-27T03:27:24.501Z,8.64
2024-03-27T03:29:55.127Z,8.66
2024-03-27T03:32:25.739Z,8.68
2024-03-27T03:34:56.375Z,8.68
2024-03-27T03:37:26.960Z,8.70
2024-03-27T03:39:57.623Z,8.73
2024-03-27T03:42:27.977Z,8.69
2024-03-27T03:44:58.256Z,8.66
2024-03-27T03:47:28.881Z,8.67
2024-03-27T03:49:59.494Z,8.65
2024-03-27T03:52:30.132Z,8.66
2024-03-27T03:55:00.811Z,8.68
2024-03-27T03:57:30.997Z,8.70
2024-03-27T04:00:01.583Z,8.72
2024-03-27T04:02:32.072Z,8.72
2024-03-27T04:05:02.286Z,8.70
2024-03-27T04:07:32.920Z,8.66
2024-03-27T04:10:03.500Z,8.66
2024-03-27T04:12:34.146Z,8.62
2024-03-27T04:15:04.370Z,8.59
2024-03-27T04:17:35.066Z,8.55
2024-03-27T04:20:05.615Z,8.52
2024-03-27T04:22:36.022Z,8.49
2024-03-27T04:25:06.400Z,8.45
2024-03-27T04:27:37.029Z,8.48
2024-03-27T04:30:07.270Z,8.50
2024-03-27T04:32:37.886Z,8.51
2024-03-27T04:35:08.797Z,8.51
2024-03-27T04:37:38.852Z,8.52
2024-03-27T04:40:09.605Z,8.57
2024-03-27T04:42:40.074Z,8.59
2024-03-27T04:45:10.478Z,8.60
2024-03-27T04:47:40.797Z,8.61
2024-03-27T04:50:11.051Z,8.60
2024-03-27T04:52:41.710Z,8.62
2024-03-27T04:55:12.045Z,8.61
2024-03-27T04:57:42.635Z,8.62
2024-03-27T05:00:13.381Z,8.61
2024-03-27T05:02:43.888Z,8.60
2024-03-27T05:05:14.532Z,8.53
2024-03-27T05:07:45.146Z,8.46
2024-03-27T05:10:15.864Z,8.38
2024-03-27T05:12:46.043Z,8.36
2024-03-27T05:15:16.690Z,8.35
2024-03-27T05:17:47.303Z,8.34
2024-03-27T05:20:17.485Z,8.32
2024-03-27T05:22:47.670Z,8.32
2024-03-27T05:25:17.825Z,8.31
2024-03-27T05:27:48.401Z,8.28
2024-03-27T05:30:19.065Z,8.21
2024-03-27T05:32:49.703Z,8.17
2024-03-27T05:35:20.399Z,8.14
2024-03-27T05:37:51.058Z,8.09
2024-03-27T05:40:21.663Z,8.07
2024-03-27T05:42:52.355Z,8.06
2024-03-27T05:45:22.722Z,8.05
2024-03-27T05:47:53.390Z,8.07
2024-03-27T05:50:24.078Z,8.09
2024-03-27T05:52:54.764Z,8.13
2024-03-27T05:55:25.612Z,8.12
2024-03-27T05:57:56.172Z,8.10
2024-03-27T06:00:26.632Z,8.10
2024-03-27T06:02:56.626Z,8.12
2024-03-27T06:05:27.560Z,8.11
2024-03-27T06:07:58.211Z,8.13
2024-03-27T06:10:28.941Z,8.13
2024-03-27T06:12:59.319Z,8.13
2024-03-27T06:15:29.944Z,8.16
2024-03-27T06:18:00.604Z,8.22
2024-03-27T06:20:31.277Z,8.26
2024-03-27T06:23:01.640Z,8.33
2024-03-27T06:25:32.061Z,8.37
2024-03-27T06:28:02.022Z,8.41
2024-03-27T06:30:32.667Z,8.48
2024-03-27T06:33:02.685Z,8.55
2024-03-27T06:35:33.027Z,8.56
2024-03-27T06:38:03.658Z,8.58
2024-03-27T06:40:34.042Z,8.58
2024-03-27T06:43:04.291Z,8.60
2024-03-27T06:45:46.357Z,8.63
2024-03-27T06:48:05.099Z,8.65
2024-03-27T06:50:35.329Z,8.65
2024-03-27T06:53:05.967Z,8.65
2024-03-27T06:55:36.488Z,8.63
2024-03-27T06:58:07.075Z,8.59
2024-03-27T07:00:37.632Z,8.56
2024-03-27T07:03:07.977Z,8.50
2024-03-27T07:05:38.647Z,8.64
2024-03-27T07:08:09.266Z,8.70
2024-03-27T07:10:39.598Z,8.78
2024-03-27T07:13:10.064Z,8.89
2024-03-27T07:15:39.968Z,9.00
2024-03-27T07:18:10.585Z,9.12
2024-03-27T07:20:40.932Z,9.22
2024-03-27T07:23:11.270Z,9.36
2024-03-27T07:25:41.925Z,9.51
2024-03-27T07:28:12.695Z,9.59
2024-03-27T07:30:46.836Z,9.65
2024-03-27T07:33:13.351Z,9.73
2024-03-27T07:35:44.178Z,9.77
2024-03-27T07:38:14.491Z,9.83
2024-03-27T07:40:45.111Z,9.86
2024-03-27T07:43:15.461Z,9.79
2024-03-27T07:45:46.299Z,9.69
2024-03-27T07:48:16.570Z,9.66
2024-03-27T07:50:46.912Z,9.70
2024-03-27T07:53:17.612Z,9.62
2024-03-27T07:55:47.740Z,9.68
2024-03-27T07:58:18.306Z,9.72
2024-03-27T08:00:48.994Z,9.77
2024-03-27T08:03:19.283Z,9.81
2024-03-27T08:05:49.543Z,9.90
2024-03-27T08:08:20.344Z,9.89
2024-03-27T08:10:50.696Z,10.03
2024-03-27T08:13:21.237Z,10.10
2024-03-27T08:15:51.850Z,10.15
2024-03-27T08:18:22.426Z,10.23
2024-03-27T08:20:52.824Z,10.27
2024-03-27T08:23:23.262Z,10.36
2024-03-27T08:25:53.880Z,10.41
2024-03-27T08:28:24.064Z,10.52
2024-03-27T08:30:54.431Z,10.60
2024-03-27T08:33:24.958Z,10.63
2024-03-27T08:35:55.496Z,10.70
2024-03-27T08:38:26.039Z,10.80
2024-03-27T08:40:56.449Z,10.81
2024-03-27T08:43:26.874Z,10.84
2024-03-27T08:45:57.454Z,10.92
2024-03-27T08:48:27.642Z,10.95
2024-03-27T08:50:58.222Z,10.98
2024-03-27T08:53:28.737Z,10.99
2024-03-27T08:55:59.327Z,11.09
2024-03-27T08:58:30.119Z,11.08
2024-03-27T09:01:00.509Z,11.17
2024-03-27T09:03:30.944Z,11.29
2024-03-27T09:06:01.561Z,11.33
2024-03-27T09:08:31.977Z,11.45
2024-03-27T09:11:02.554Z,11.53
2024-03-27T09:13:33.027Z,11.61
2024-03-27T09:16:03.571Z,11.62
2024-03-27T09:18:33.733Z,11.68
2024-03-27T09:21:04.281Z,11.68
2024-03-27T09:23:34.822Z,11.81
2024-03-27T09:26:05.337Z,11.92
2024-03-27T09:28:35.825Z,12.09
2024-03-27T09:31:06.071Z,12.19
2024-03-27T09:33:36.282Z,12.19
2024-03-27T09:36:06.865Z,12.18
2024-03-27T09:38:37.279Z,12.27
2024-03-27T09:41:07.455Z,12.31
2024-03-27T09:43:37.934Z,12.38
2024-03-27T09:46:08.418Z,12.49
2024-03-27T09:48:39.008Z,12.46
2024-03-27T09:51:09.386Z,12.47
2024-03-27T09:53:39.868Z,12.55
2024-03-27T09:56:10.496Z,12.62
2024-03-27T09:58:40.827Z,12.67
2024-03-27T10:01:11.480Z,12.74
2024-03-27T10:03:41.983Z,12.80
2024-03-27T10:06:12.520Z,12.85
2024-03-27T10:08:43.091Z,12.86
2024-03-27T10:11:13.730Z,12.81
2024-03-27T10:13:43.945Z,12.80
2024-03-27T10:16:14.728Z,12.78
2024-03-27T10:18:44.679Z,12.80
2024-03-27T10:21:14.891Z,12.84
2024-03-27T10:23:45.060Z,12.92
2024-03-27T10:26:15.384Z,12.86
2024-03-27T10:28:45.924Z,12.73
2024-03-27T10:31:16.168Z,12.69
2024-03-27T10:33:46.475Z,12.67
2024-03-27T10:36:17.493Z,12.61
2024-03-27T10:38:47.651Z,12.29
2024-03-27T10:41:18.127Z,12.40
2024-03-27T10:43:48.845Z,12.35
2024-03-27T10:46:19.165Z,12.42
2024-03-27T10:48:49.620Z,12.47
2024-03-27T10:51:20.075Z,12.56
2024-03-27T10:53:50.526Z,12.68
2024-03-27T10:56:21.114Z,12.70
2024-03-27T10:58:51.847Z,12.68
2024-03-27T11:01:22.009Z,12.66
2024-03-27T11:03:52.227Z,12.62
2024-03-27T11:06:22.284Z,12.58
2024-03-27T11:08:53.076Z,12.50
2024-03-27T11:11:23.788Z,12.55
2024-03-27T11:13:54.243Z,12.53
2024-03-27T11:16:24.771Z,12.51
2024-03-27T11:18:55.147Z,12.45
2024-03-27T11:21:25.633Z,12.50
2024-03-27T11:23:56.085Z,12.52
2024-03-27T11:26:26.575Z,12.62
2024-03-27T11:28:56.996Z,12.65
2024-03-27T11:31:27.471Z,12.64
2024-03-27T11:33:57.956Z,12.66
2024-03-27T11:36:28.379Z,12.72
2024-03-27T11:38:58.379Z,12.81
2024-03-27T11:41:28.655Z,12.83
2024-03-27T11:43:58.980Z,12.77
2024-03-27T11:46:29.731Z,12.79
2024-03-27T11:49:00.090Z,12.67
2024-03-27T11:51:30.427Z,12.68
2024-03-27T11:54:00.441Z,12.42
2024-03-27T11:56:31.032Z,12.51
2024-03-27T11:59:01.084Z,12.28
2024-03-27T12:01:31.703Z,12.51
2024-03-27T12:04:02.089Z,12.47
2024-03-27T12:06:32.426Z,12.48
2024-03-27T12:09:03.073Z,12.46
2024-03-27T12:11:33.389Z,12.42
2024-03-27T12:14:03.452Z,12.39
2024-03-27T12:16:33.729Z,12.25
2024-03-27T12:19:04.188Z,12.22
2024-03-27T12:21:34.693Z,12.23
2024-03-27T12:24:05.171Z,12.18
2024-03-27T12:26:35.820Z,12.20
2024-03-27T12:29:06.245Z,12.30
2024-03-27T12:31:36.649Z,12.44
2024-03-27T12:34:07.145Z,12.47
2024-03-27T12:36:37.623Z,12.41
2024-03-27T12:39:07.629Z,12.43
2024-03-27T12:41:37.952Z,12.37
2024-03-27T12:44:08.214Z,12.10
2024-03-27T12:46:38.381Z,12.42
2024-03-27T12:49:09.039Z,12.42
2024-03-27T12:51:39.408Z,12.56
2024-03-27T12:54:10.528Z,12.63
2024-03-27T12:56:40.617Z,12.49
2024-03-27T12:59:10.669Z,12.59
2024-03-27T13:01:40.789Z,12.59
2024-03-27T13:04:10.760Z,12.57
2024-03-27T13:06:40.925Z,12.67
2024-03-27T13:09:11.719Z,12.71
2024-03-27T13:11:42.399Z,12.72
2024-03-27T13:14:12.996Z,12.81
2024-03-27T13:16:43.864Z,12.72
2024-03-27T13:19:14.149Z,12.70
2024-03-27T13:21:44.694Z,12.27
2024-03-27T13:24:15.312Z,12.45
2024-03-27T13:26:45.718Z,12.40
2024-03-27T13:29:15.728Z,12.48
2024-03-27T13:31:46.428Z,12.51
2024-03-27T13:34:16.968Z,12.58
2024-03-27T13:36:47.326Z,12.65
2024-03-27T13:39:17.341Z,12.62
2024-03-27T13:41:47.432Z,12.60
2024-03-27T13:44:18.046Z,12.62
2024-03-27T13:46:48.165Z,12.69
2024-03-27T13:49:18.393Z,12.75
2024-03-27T13:51:49.150Z,12.69
2024-03-27T13:54:19.289Z,12.71
2024-03-27T13:56:49.973Z,12.71
2024-03-27T13:59:22.283Z,12.65
2024-03-27T14:01:50.680Z,12.63
2024-03-27T14:04:21.512Z,12.65
2024-03-27T14:06:52.326Z,12.65
2024-03-27T14:09:22.466Z,12.54
2024-03-27T14:11:52.904Z,12.22
2024-03-27T14:14:23.546Z,12.25
2024-03-27T14:16:53.831Z,11.97
2024-03-27T14:19:24.340Z,11.66
2024-03-27T14:21:54.927Z,11.78
2024-03-27T14:24:25.340Z,11.68
2024-03-27T14:26:55.892Z,11.84
2024-03-27T14:29:26.136Z,11.94
2024-03-27T14:31:56.630Z,11.83
2024-03-27T14:34:27.126Z,11.93
2024-03-27T14:36:57.656Z,11.90
2024-03-27T14:39:28.183Z,11.95
2024-03-27T14:41:58.697Z,12.03
2024-03-27T14:44:29.198Z,11.84
2024-03-27T14:46:59.733Z,12.02
2024-03-27T14:49:30.209Z,12.10
2024-03-27T14:52:00.444Z,12.14
2024-03-27T14:54:30.928Z,12.17
2024-03-27T14:57:01.117Z,12.17
2024-03-27T14:59:31.608Z,12.23
2024-03-27T15:02:02.154Z,12.26
2024-03-27T15:04:32.301Z,12.29
2024-03-27T15:07:02.789Z,12.34
2024-03-27T15:09:41.099Z,12.30
2024-03-27T15:12:03.815Z,12.23
2024-03-27T15:14:35.498Z,12.18
2024-03-27T15:17:04.510Z,12.20
2024-03-27T15:19:34.988Z,12.23
2024-03-27T15:22:05.524Z,12.29
2024-03-27T15:24:35.994Z,12.26
2024-03-27T15:27:06.175Z,12.15
2024-03-27T15:29:36.331Z,12.15
2024-03-27T15:32:06.833Z,12.16
2024-03-27T15:34:37.416Z,12.18
2024-03-27T15:37:07.813Z,12.22
2024-03-27T15:39:38.233Z,12.18
2024-03-27T15:42:08.725Z,12.27
2024-03-27T15:44:39.166Z,12.30
2024-03-27T15:47:09.652Z,12.31
2024-03-27T15:49:40.066Z,12.31
2024-03-27T15:52:10.560Z,12.32
2024-03-27T15:54:41.123Z,12.38
2024-03-27T15:57:11.236Z,12.45
2024-03-27T15:59:44.503Z,12.48
2024-03-27T16:02:12.151Z,12.48
2024-03-27T16:04:49.738Z,12.47
2024-03-27T16:07:13.045Z,12.41
2024-03-27T16:09:43.595Z,12.32
2024-03-27T16:12:14.038Z,12.25
2024-03-27T16:14:44.830Z,12.20
2024-03-27T16:17:15.500Z,12.16
2024-03-27T16:19:45.933Z,12.12
2024-03-27T16:22:16.670Z,12.09
2024-03-27T16:24:46.572Z,12.09
2024-03-27T16:27:17.182Z,12.10
2024-03-27T16:29:47.602Z,12.08
2024-03-27T16:32:18.070Z,12.04
2024-03-27T16:34:48.514Z,11.99
2024-03-27T16:37:19.000Z,11.94
2024-03-27T16:39:49.452Z,11.90
2024-03-27T16:42:19.922Z,11.82
2024-03-27T16:44:50.364Z,11.73
2024-03-27T16:47:20.882Z,11.64
2024-03-27T16:49:51.300Z,11.58
2024-03-27T16:52:21.783Z,11.53
2024-03-27T16:54:52.215Z,11.52
2024-03-27T16:57:22.702Z,11.46
2024-03-27T16:59:53.156Z,11.33
2024-03-27T17:02:23.652Z,11.26
2024-03-27T17:04:54.095Z,11.25
2024-03-27T17:07:24.587Z,11.16
2024-03-27T17:09:55.065Z,11.19
2024-03-27T17:12:25.603Z,11.18
2024-03-27T17:14:56.068Z,11.18
2024-03-27T17:17:26.353Z,11.13
2024-03-27T17:19:56.420Z,11.05
2024-03-27T17:22:26.917Z,10.99
2024-03-27T17:24:57.547Z,10.93
2024-03-27T17:27:27.986Z,10.84
2024-03-27T17:29:58.379Z,10.76
2024-03-27T17:32:28.935Z,10.67
2024-03-27T17:34:59.358Z,10.66
2024-03-27T17:37:29.888Z,10.62
2024-03-27T17:40:00.413Z,10.62
2024-03-27T17:42:30.880Z,10.63
2024-03-27T17:45:01.356Z,10.66
2024-03-27T17:47:31.967Z,10.66
2024-03-27T17:50:02.332Z,10.65
2024-03-27T17:52:32.893Z,10.66
2024-03-27T17:55:03.352Z,10.67
2024-03-27T17:57:33.874Z,10.70
2024-03-27T18:00:04.485Z,10.74
2024-03-27T18:02:34.864Z,10.72
2024-03-27T18:05:05.354Z,10.74
2024-03-27T18:07:35.595Z,10.71
2024-03-27T18:10:06.086Z,10.73
2024-03-27T18:12:36.590Z,10.73
2024-03-27T18:15:07.053Z,10.71
2024-03-27T18:17:37.583Z,10.72
2024-03-27T18:20:08.305Z,10.71
2024-03-27T18:22:38.305Z,10.71
2024-03-27T18:25:08.881Z,10.72
2024-03-27T18:27:39.372Z,10.72
2024-03-27T18:30:09.812Z,10.70
2024-03-27T18:32:40.326Z,10.67
2024-03-27T18:35:10.826Z,10.63
2024-03-27T18:37:41.350Z,10.60
2024-03-27T18:40:11.836Z,10.59
2024-03-27T18:42:42.413Z,10.53
2024-03-27T18:45:12.848Z,10.43
2024-03-27T18:47:43.377Z,10.31
2024-03-27T18:50:13.918Z,10.20
2024-03-27T18:52:44.442Z,10.07
2024-03-27T18:55:14.957Z,9.96
2024-03-27T18:57:45.538Z,9.89
2024-03-27T19:00:15.846Z,9.89
2024-03-27T19:02:46.225Z,9.77
2024-03-27T19:05:16.882Z,9.68
2024-03-27T19:07:47.272Z,9.62
2024-03-27T19:10:17.595Z,9.62
2024-03-27T19:12:48.144Z,9.63
2024-03-27T19:15:18.677Z,9.69
2024-03-27T19:17:48.801Z,9.74
2024-03-27T19:20:19.481Z,9.76
2024-03-27T19:22:49.734Z,9.80
2024-03-27T19:25:19.962Z,9.90
2024-03-27T19:27:50.575Z,9.93
2024-03-27T19:30:21.080Z,9.98
2024-03-27T19:32:51.646Z,10.07
2024-03-27T19:35:22.305Z,10.09
2024-03-27T19:37:52.763Z,10.07
2024-03-27T19:40:23.324Z,10.03
2024-03-27T19:42:53.897Z,9.99
2024-03-27T19:45:24.525Z,9.97
2024-03-27T19:47:55.093Z,9.94
2024-03-27T19:50:25.543Z,9.93
2024-03-27T19:52:56.183Z,9.92
2024-03-27T19:55:26.685Z,9.89
2024-03-27T19:57:57.278Z,9.81
2024-03-27T20:00:27.845Z,9.72
2024-03-27T20:02:58.416Z,9.65
2024-03-27T20:05:28.944Z,9.59
2024-03-27T20:07:59.614Z,9.48
2024-03-27T20:10:30.096Z,9.42
2024-03-27T20:13:00.772Z,9.31
2024-03-27T20:15:31.277Z,9.31
2024-03-27T20:18:01.864Z,9.30
2024-03-27T20:20:32.396Z,9.28
2024-03-27T20:23:03.006Z,9.26
2024-03-27T20:25:33.560Z,9.27
2024-03-27T20:28:04.241Z,9.29
2024-03-27T20:30:34.429Z,9.31
2024-03-27T20:33:05.018Z,9.33
2024-03-27T20:35:35.594Z,9.34
2024-03-27T20:38:06.195Z,9.36
2024-03-27T20:40:36.781Z,9.35
2024-03-27T20:43:07.476Z,9.31
2024-03-27T20:45:37.938Z,9.30
2024-03-27T20:48:08.554Z,9.30
2024-03-27T20:50:39.126Z,9.31
2024-03-27T20:53:09.734Z,9.29
2024-03-27T20:55:40.297Z,9.26
2024-03-27T20:58:10.616Z,9.25
2024-03-27T21:00:41.136Z,9.27
2024-03-27T21:03:11.748Z,9.25
2024-03-27T21:05:42.318Z,9.24
2024-03-27T21:08:12.925Z,9.21
2024-03-27T21:10:43.515Z,9.20
2024-03-27T21:13:14.141Z,9.18
2024-03-27T21:15:44.702Z,9.18
2024-03-27T21:18:15.290Z,9.19
2024-03-27T21:20:45.873Z,9.17
2024-03-27T21:23:15.921Z,9.16
2024-03-27T21:25:46.144Z,9.17
2024-03-27T21:28:16.787Z,9.14
2024-03-27T21:30:47.065Z,9.13
2024-03-27T21:33:17.690Z,9.07
2024-03-27T21:35:48.257Z,9.00
2024-03-27T21:38:18.893Z,8.94
2024-03-27T21:40:49.703Z,8.90
2024-03-27T21:43:19.851Z,8.87
2024-03-27T21:45:50.418Z,8.87
2024-03-27T21:48:21.019Z,8.85
2024-03-27T21:50:51.280Z,8.84
2024-03-27T21:53:21.929Z,8.83
2024-03-27T21:55:52.236Z,8.83
2024-03-27T21:58:22.858Z,8.83
2024-03-27T22:00:53.168Z,8.85
2024-03-27T22:03:23.903Z,8.87
2024-03-27T22:05:54.022Z,8.86
2024-03-27T22:08:24.382Z,8.85
2024-03-27T22:10:54.942Z,8.85
2024-03-27T22:13:25.852Z,8.85
2024-03-27T22:15:56.441Z,8.87
2024-03-27T22:18:27.009Z,8.87
2024-03-27T22:23:27.662Z,8.84
2024-03-27T22:25:58.255Z,8.84
2024-03-27T22:28:28.915Z,8.83
2024-03-27T22:30:59.593Z,8.84
2024-03-27T22:33:29.561Z,8.82
2024-03-27T22:35:59.820Z,8.81
2024-03-27T22:38:30.463Z,8.79
2024-03-27T22:41:00.778Z,8.77
2024-03-27T22:43:31.418Z,8.76
2024-03-27T22:46:01.955Z,8.76
2024-03-27T22:48:32.592Z,8.74
2024-03-27T22:51:02.852Z,8.72
2024-03-27T22:53:33.368Z,8.74
2024-03-27T22:56:03.482Z,8.76
2024-03-27T22:58:34.413Z,8.77
2024-03-27T23:01:05.232Z,8.78
2024-03-27T23:03:35.884Z,8.76
2024-03-27T23:06:06.517Z,8.71
2024-03-27T23:08:37.379Z,8.65
2024-03-27T23:11:07.631Z,8.61
2024-03-27T23:13:37.717Z,8.59
2024-03-27T23:16:07.784Z,8.59
2024-03-27T23:18:38.358Z,8.58
2024-03-27T23:21:08.625Z,8.57
2024-03-27T23:23:39.251Z,8.56
2024-03-27T23:26:09.308Z,8.55
2024-03-27T23:28:39.492Z,8.59
2024-03-27T23:31:09.818Z,8.63
2024-03-27T23:33:40.454Z,8.67
2024-03-27T23:36:10.958Z,8.70
2024-03-27T23:38:41.881Z,8.74
2024-03-27T23:41:12.432Z,8.78
2024-03-27T23:43:43.041Z,8.80
2024-03-27T23:46:13.674Z,8.81
2024-03-27T23:48:44.040Z,8.81
2024-03-27T23:51:14.306Z,8.82
2024-03-27T23:53:44.682Z,8.83
2024-03-27T23:56:15.455Z,8.82
2024-03-27T23:58:45.823Z,8.82
